Time;durP1;ratioP1;P1;durP2;ratioP2;P2;SDS_P1;SDS_P2;PMS_P1;PMS_P2;Temp;Humidity;BMP_temperature;BMP_pressure;BME280_temperature;BME280_humidity;BME280_pressure;Samples;Min_cycle;Max_cycle;Signal;HPM_P1;HPM_P2
2022/06/17 00:01:58;;;;;;;9.13;3.22;;;;;;;18.96;53.07;101170.80;1694024;83;25874;-56
2022/06/17 00:04:25;;;;;;;12.45;3.58;;;;;;;18.92;53.26;101164.00;1770580;79;25956;-56
2022/06/17 00:07:00;;;;;;;7.37;3.25;;;;;;;18.84;53.09;101169.52;1714925;80;25771;-56
2022/06/17 00:09:30;;;;;;;9.88;3.00;;;;;;;18.77;53.33;101169.37;1710669;82;27496;-56
2022/06/17 00:11:57;;;;;;;11.48;3.58;;;;;;;18.63;53.53;101161.98;1713176;82;25806;-56
2022/06/17 00:14:33;;;;;;;9.25;3.70;;;;;;;18.53;53.92;101163.06;1710875;82;25915;-56
2022/06/17 00:17:04;;;;;;;7.37;3.37;;;;;;;18.44;54.12;101158.16;1718692;83;26074;-56
2022/06/17 00:19:30;;;;;;;13.58;3.95;;;;;;;18.38;54.59;101150.72;1719550;83;25919;-57
2022/06/17 00:21:57;;;;;;;7.85;3.15;;;;;;;18.32;54.53;101147.85;1718602;83;28192;-56
2022/06/17 00:24:33;;;;;;;5.35;3.15;;;;;;;18.24;54.64;101144.15;1705581;83;25791;-56
2022/06/17 00:27:00;;;;;;;10.13;3.42;;;;;;;18.21;54.72;101143.13;1712760;82;25873;-57
2022/06/17 00:29:30;;;;;;;11.63;3.15;;;;;;;18.19;55.23;101153.38;1705651;82;27034;-56
2022/06/17 00:31:58;;;;;;;8.85;3.00;;;;;;;18.14;55.14;101143.02;1706119;82;25746;-56
2022/06/17 00:34:26;;;;;;;6.85;3.42;;;;;;;18.08;55.65;101147.78;1713524;83;28554;-56
2022/06/17 00:36:58;;;;;;;17.82;3.27;;;;;;;18.03;55.53;101150.20;1705574;82;25822;-56
2022/06/17 00:39:30;;;;;;;8.83;3.08;;;;;;;17.98;55.63;101144.42;1721819;80;25904;-56
2022/06/17 00:42:10;;;;;;;8.30;3.15;;;;;;;17.95;55.73;101142.88;1763507;80;26076;-56
2022/06/17 00:44:51;;;;;;;10.53;4.15;;;;;;;17.95;55.79;101137.95;1758986;80;26472;-57
2022/06/17 00:47:39;;;;;;;10.53;4.17;;;;;;;17.94;55.90;101133.53;1775224;80;27506;-57
2022/06/17 00:50:18;;;;;;;10.18;3.40;;;;;;;17.92;56.08;101135.58;1764029;79;25691;-56
2022/06/17 00:53:09;;;;;;;12.10;3.40;;;;;;;17.92;56.33;101130.13;1764122;79;25874;-56
2022/06/17 00:55:59;;;;;;;13.30;3.50;;;;;;;17.88;56.44;101127.44;1763672;79;27119;-57
2022/06/17 00:58:55;;;;;;;9.20;3.45;;;;;;;17.84;56.72;101131.86;1762625;80;25451;-56
2022/06/17 01:01:23;;;;;;;8.00;3.20;;;;;;;17.82;56.66;101127.10;1762187;80;27483;-56
2022/06/17 01:03:54;;;;;;;14.30;3.35;;;;;;;17.77;56.83;101124.07;1769868;80;26091;-56
2022/06/17 01:06:27;;;;;;;17.95;3.35;;;;;;;17.75;57.01;101123.39;1777127;80;26459;-56
2022/06/17 01:11:55;;;;;;;9.40;3.40;;;;;;;17.73;56.89;101127.31;1756548;78;25829;-56
2022/06/17 01:14:23;;;;;;;7.70;2.98;;;;;;;17.70;57.20;101123.58;1760899;79;27449;-56
2022/06/17 01:16:54;;;;;;;9.58;3.20;;;;;;;17.66;57.19;101115.75;1770474;78;25888;-56
2022/06/17 01:19:45;;;;;;;9.80;2.77;;;;;;;17.66;57.08;101110.84;1758683;80;25748;-56
2022/06/17 01:22:29;;;;;;;11.40;3.52;;;;;;;17.67;56.86;101120.17;1753593;78;26247;-56
2022/06/17 01:25:02;;;;;;;6.58;3.20;;;;;;;17.67;57.17;101132.41;1781515;80;25773;-56
2022/06/17 01:27:35;;;;;;;7.87;3.30;;;;;;;17.65;56.77;101129.05;1753880;78;27462;-56
2022/06/17 01:30:05;;;;;;;8.53;3.55;;;;;;;17.66;56.70;101120.36;1759805;79;25628;-56
2022/06/17 01:32:38;;;;;;;12.85;3.33;;;;;;;17.67;56.86;101122.89;1777533;80;25938;-56
2022/06/17 01:35:07;;;;;;;11.25;2.65;;;;;;;17.66;56.80;101116.27;1771210;79;26220;-56
2022/06/17 01:37:35;;;;;;;14.00;3.25;;;;;;;17.57;56.90;101118.16;1717548;80;25733;-56
2022/06/17 01:40:04;;;;;;;6.58;3.00;;;;;;;17.49;56.68;101114.09;1698400;82;27639;-56
2022/06/17 01:42:34;;;;;;;8.13;2.98;;;;;;;17.43;57.68;101108.00;1753598;80;25803;-56
2022/06/17 01:45:01;;;;;;;8.13;3.22;;;;;;;17.30;57.27;101113.45;1718123;82;25909;-56
2022/06/17 01:47:30;;;;;;;17.30;2.90;;;;;;;17.24;57.04;101111.95;1704785;82;26859;-56
2022/06/17 01:50:02;;;;;;;8.68;3.02;;;;;;;17.21;57.26;101108.55;1725378;82;25460;-56
2022/06/17 01:52:37;;;;;;;6.55;2.65;;;;;;;17.18;57.05;101104.80;1712859;82;27474;-56
2022/06/17 01:55:19;;;;;;;6.78;2.83;;;;;;;17.15;56.91;101107.89;1694317;82;25741;-56
2022/06/17 01:57:51;;;;;;;7.87;3.08;;;;;;;17.10;57.23;101103.45;1693867;83;25804;-56
2022/06/17 02:00:23;;;;;;;4.97;2.75;;;;;;;17.07;57.38;101099.74;1698607;82;26282;-56
2022/06/17 02:03:09;;;;;;;6.85;2.83;;;;;;;17.04;57.47;101097.36;1694488;82;33537;-57
2022/06/17 02:05:41;;;;;;;8.43;2.62;;;;;;;16.99;57.58;101097.00;1686203;83;28304;-56
2022/06/17 02:08:09;;;;;;;7.65;2.90;;;;;;;16.95;57.58;101099.22;1674915;85;25847;-56
2022/06/17 02:10:40;;;;;;;11.68;2.65;;;;;;;16.94;57.70;101101.63;1664613;84;25772;-56
2022/06/17 02:13:10;;;;;;;9.88;2.95;;;;;;;16.94;57.74;101107.55;1673993;85;26089;-56
2022/06/17 02:15:47;;;;;;;10.25;3.00;;;;;;;16.93;57.74;101101.73;1662215;84;27379;-56
2022/06/17 02:18:19;;;;;;;10.72;3.08;;;;;;;16.91;57.94;101106.00;1671032;85;27654;-56
2022/06/17 02:20:51;;;;;;;8.15;2.75;;;;;;;16.88;58.04;101099.53;1662850;85;25989;-56
2022/06/17 02:23:22;;;;;;;6.70;3.05;;;;;;;16.87;58.18;101098.69;1668818;85;25864;-56
2022/06/17 02:25:52;;;;;;;5.95;2.95;;;;;;;16.87;58.30;101104.13;1665190;85;26924;-56
2022/06/17 02:28:21;;;;;;;11.22;3.05;;;;;;;16.91;58.40;101101.92;1672101;84;25886;-56
2022/06/17 02:30:50;;;;;;;7.47;2.77;;;;;;;16.89;58.87;101096.66;1669695;84;27041;-56
2022/06/17 02:33:19;;;;;;;7.25;2.92;;;;;;;16.81;58.91;101096.63;1649809;85;25820;-56
2022/06/17 02:35:56;;;;;;;9.85;2.62;;;;;;;16.79;59.35;101091.91;1676282;84;26090;-56
2022/06/17 02:38:28;;;;;;;7.97;2.87;;;;;;;16.78;59.49;101095.63;1676663;84;26742;-56
2022/06/17 02:40:58;;;;;;;6.35;2.60;;;;;;;16.78;59.98;101095.63;1698169;82;25480;-56
2022/06/17 02:43:33;;;;;;;12.23;2.95;;;;;;;16.77;59.34;101097.14;1708314;83;27602;-56
2022/06/17 02:46:04;;;;;;;10.85;3.20;;;;;;;16.80;59.52;101100.89;1757964;80;25769;-56
2022/06/17 02:48:37;;;;;;;17.52;3.17;;;;;;;16.80;59.46;101097.68;1758332;79;25737;-56
2022/06/17 02:51:04;;;;;;;8.78;3.15;;;;;;;16.82;59.42;101102.41;1759299;80;26097;-56
2022/06/17 02:53:35;;;;;;;6.65;3.22;;;;;;;16.88;59.42;101106.32;1768735;80;25746;-56
2022/06/17 02:56:08;;;;;;;7.28;2.98;;;;;;;16.92;60.22;101108.19;1761959;80;27529;-56
2022/06/17 02:59:05;;;;;;;13.78;3.10;;;;;;;16.89;60.06;101111.61;1776578;80;26159;-56
2022/06/17 03:01:37;;;;;;;7.50;2.90;;;;;;;16.90;59.89;101108.37;1765668;80;25940;-56
2022/06/17 03:04:17;;;;;;;10.53;3.08;;;;;;;16.88;60.32;101109.91;1776508;80;26172;-56
2022/06/17 03:06:48;;;;;;;8.55;3.08;;;;;;;16.86;60.22;101108.35;1767452;80;25713;-56
2022/06/17 03:09:25;;;;;;;8.18;2.90;;;;;;;16.86;59.73;101109.71;1767250;79;27435;-56
2022/06/17 03:11:58;;;;;;;9.88;2.87;;;;;;;16.86;59.98;101105.14;1759184;80;25770;-56
2022/06/17 03:14:30;;;;;;;7.83;2.77;;;;;;;16.87;59.77;101110.92;1745654;80;25865;-56
2022/06/17 03:17:00;;;;;;;7.55;2.42;;;;;;;16.94;59.96;101111.63;1768275;80;26146;-55
2022/06/17 03:19:32;;;;;;;8.75;3.20;;;;;;;16.99;59.94;101111.45;1774646;80;26560;-56
2022/06/17 03:21:59;;;;;;;6.30;2.77;;;;;;;17.06;59.78;101111.63;1761145;80;27487;-56
2022/06/17 03:24:43;;;;;;;8.90;2.83;;;;;;;17.11;59.70;101111.12;1769240;80;25917;-56
2022/06/17 03:27:15;;;;;;;4.53;2.55;;;;;;;17.17;59.69;101112.62;1754366;80;25743;-56
2022/06/17 03:29:45;;;;;;;6.80;2.70;;;;;;;17.24;59.59;101111.43;1759766;80;26887;-56
2022/06/17 03:32:19;;;;;;;11.70;2.98;;;;;;;17.30;59.58;101111.25;1758376;80;25522;-56
2022/06/17 03:34:54;;;;;;;7.55;2.72;;;;;;;17.38;59.83;101117.20;1754269;80;27292;-57
2022/06/17 03:37:29;;;;;;;13.25;3.27;;;;;;;17.43;59.53;101109.36;1758003;80;25882;-56
2022/06/17 03:40:07;;;;;;;9.13;3.12;;;;;;;17.50;59.43;101112.59;1762762;80;25522;-56
2022/06/17 03:43:07;;;;;;;8.33;3.60;;;;;;;17.59;59.44;101109.31;1730103;80;26132;-56
2022/06/17 03:45:48;;;;;;;22.20;5.35;;;;;;;17.66;59.39;101105.39;1754112;80;25783;-57
2022/06/17 03:48:42;;;;;;;13.30;3.37;;;;;;;17.77;59.21;101105.52;1700040;84;28170;-56
2022/06/17 03:51:21;;;;;;;10.63;2.87;;;;;;;17.79;59.00;101107.06;1640517;86;25899;-56
2022/06/17 03:53:51;;;;;;;14.58;2.92;;;;;;;17.88;58.94;101102.95;1666243;85;25529;-56
2022/06/17 03:56:28;;;;;;;11.83;3.35;;;;;;;17.93;58.99;101102.73;1666340;85;26046;-57
2022/06/17 03:59:00;;;;;;;9.50;3.72;;;;;;;17.98;59.00;101096.29;1681430;83;25820;-56
2022/06/17 04:01:42;;;;;;;8.08;2.72;;;;;;;18.06;58.80;101096.77;1718457;82;27498;-56
2022/06/17 04:04:25;;;;;;;21.40;3.63;;;;;;;18.10;58.55;101099.98;1718296;82;26204;-56
2022/06/17 04:06:56;;;;;;;15.38;3.30;;;;;;;18.14;58.41;101094.50;1733864;80;25506;-55
2022/06/17 04:09:29;;;;;;;11.48;3.17;;;;;;;18.19;58.26;101088.03;1765008;81;27068;-56
2022/06/17 04:12:05;;;;;;;9.38;3.10;;;;;;;18.21;58.32;101096.84;1762980;80;25696;-56
2022/06/17 04:14:57;;;;;;;23.65;3.47;;;;;;;18.25;58.50;101092.75;1750441;81;27515;-55
2022/06/17 04:17:48;;;;;;;9.48;3.22;;;;;;;18.27;58.32;101092.06;1762084;81;25852;-56
2022/06/17 04:20:37;;;;;;;17.82;3.30;;;;;;;18.30;58.05;101093.58;1769782;81;25742;-56
2022/06/17 04:23:17;;;;;;;;;;;;;;;18.35;58.12;101097.12;1768184;80;26281;-56
2022/06/17 04:26:24;;;;;;;19.30;3.42;;;;;;;18.37;58.29;101095.07;1767802;81;25896;-57
2022/06/17 04:29:05;;;;;;;14.55;3.75;;;;;;;18.40;58.06;101089.24;1762905;81;27733;-56
2022/06/17 04:31:34;;;;;;;16.35;5.95;;;;;;;18.42;58.07;101083.11;1767709;81;25777;-56
2022/06/17 04:34:15;;;;;;;24.57;6.87;;;;;;;18.46;58.17;101083.93;1753545;81;26132;-56
2022/06/17 04:37:00;;;;;;;19.32;5.35;;;;;;;18.51;58.13;101080.66;1762827;79;26274;-57
2022/06/17 04:39:49;;;;;;;14.95;3.30;;;;;;;18.57;58.04;101076.38;1765310;80;25970;-56
2022/06/17 04:42:38;;;;;;;11.30;3.47;;;;;;;18.63;58.08;101082.44;1757102;80;28032;-56
2022/06/17 04:45:18;;;;;;;17.42;3.47;;;;;;;18.64;57.93;101070.52;1772330;80;25862;-55
2022/06/17 04:47:46;;;;;;;17.77;3.47;;;;;;;18.68;57.77;101081.41;1762694;79;25741;-56
2022/06/17 04:50:22;;;;;;;17.02;3.22;;;;;;;18.74;57.56;101079.80;1769396;80;26108;-56
2022/06/17 04:52:51;;;;;;;20.72;3.80;;;;;;;18.77;57.32;101077.58;1762955;80;25787;-56
2022/06/17 04:55:42;;;;;;;21.75;3.77;;;;;;;18.84;56.91;101075.48;1757378;80;27496;-56
2022/06/17 04:58:21;;;;;;;20.48;3.30;;;;;;;18.89;56.61;101075.27;1757298;79;25695;-56
2022/06/17 05:00:54;;;;;;;13.83;4.10;;;;;;;18.95;56.49;101069.62;1767365;79;25519;-55
2022/06/17 05:03:29;;;;;;;20.45;3.62;;;;;;;19.03;56.38;101070.91;1751082;79;26172;-56
2022/06/17 05:06:16;;;;;;;27.22;3.65;;;;;;;19.09;56.36;101062.52;1728836;79;25829;-55
2022/06/17 05:08:50;;;;;;;21.12;3.85;;;;;;;19.17;56.18;101069.73;1706883;83;27499;-55
2022/06/17 05:11:32;;;;;;;13.00;3.70;;;;;;;19.21;55.97;101069.72;1663761;83;25909;-55
2022/06/17 05:14:07;;;;;;;22.50;3.85;;;;;;;19.28;55.91;101077.48;1712990;81;26990;-56
2022/06/17 05:16:34;;;;;;;14.50;3.60;;;;;;;19.37;55.61;101076.86;1706637;81;26065;-56
2022/06/17 05:19:01;;;;;;;29.32;4.03;;;;;;;19.44;55.28;101077.83;1712780;82;25486;-56
2022/06/17 05:21:29;;;;;;;25.88;4.00;;;;;;;19.49;55.08;101075.37;1709696;83;27589;-56
2022/06/17 05:23:59;;;;;;;17.12;3.25;;;;;;;19.56;54.79;101074.11;1705700;83;25888;-55
2022/06/17 05:26:28;;;;;;;17.45;4.05;;;;;;;19.60;54.93;101071.84;1719308;81;25743;-56
2022/06/17 05:28:55;;;;;;;28.98;4.40;;;;;;;19.62;54.82;101074.70;1712691;83;26055;-57
2022/06/17 05:31:27;;;;;;;13.18;3.33;;;;;;;19.67;54.83;101077.73;1708597;82;25947;-57
2022/06/17 05:33:59;;;;;;;12.07;3.40;;;;;;;19.73;54.62;101070.64;1715707;83;27050;-56
2022/06/17 05:36:26;;;;;;;22.10;3.35;;;;;;;19.79;54.52;101066.31;1712639;83;25854;-56
2022/06/17 05:38:54;;;;;;;10.20;3.60;;;;;;;19.85;54.47;101076.52;1720396;82;25721;-56
2022/06/17 05:41:24;;;;;;;15.53;3.35;;;;;;;19.90;54.27;101075.42;1757265;80;25973;-57
2022/06/17 05:43:54;;;;;;;16.20;3.90;;;;;;;19.94;53.97;101071.28;1776706;80;25770;-56
2022/06/17 05:46:29;;;;;;;22.02;3.70;;;;;;;20.00;53.44;101071.88;1753261;79;27481;-56
2022/06/17 05:49:10;;;;;;;12.05;4.17;;;;;;;20.06;53.19;101070.27;1762940;79;25847;-57
2022/06/17 05:51:39;;;;;;;16.85;3.37;;;;;;;20.14;53.04;101072.02;1747414;79;25444;-56
2022/06/17 05:54:10;;;;;;;22.13;3.98;;;;;;;20.21;52.96;101062.55;1751217;79;26106;-57
2022/06/17 05:56:39;;;;;;;20.05;4.03;;;;;;;20.27;52.83;101062.62;1746922;79;25994;-56
2022/06/17 05:59:07;;;;;;;18.70;3.72;;;;;;;20.35;52.77;101064.91;1750777;79;27620;-56
2022/06/17 06:01:33;;;;;;;19.17;3.67;;;;;;;20.41;52.51;101063.61;1766604;80;25671;-56
2022/06/17 06:04:00;;;;;;;12.82;3.80;;;;;;;20.46;52.34;101063.86;1759493;80;25911;-56
2022/06/17 06:06:27;;;;;;;14.98;3.77;;;;;;;20.51;52.38;101059.18;1773149;80;26846;-57
2022/06/17 06:08:56;;;;;;;34.63;4.20;;;;;;;20.57;52.36;101061.66;1781557;80;25913;-57
2022/06/17 06:11:23;;;;;;;20.88;4.28;;;;;;;20.63;52.05;101059.00;1763998;79;28797;-56
2022/06/17 06:13:50;;;;;;;19.50;4.33;;;;;;;20.69;51.90;101063.34;1754365;80;25919;-56
2022/06/17 06:16:17;;;;;;;24.27;4.42;;;;;;;20.75;51.64;101057.97;1759197;80;25811;-57
2022/06/17 06:18:47;;;;;;;17.42;3.92;;;;;;;20.80;51.48;101058.75;1766978;80;26117;-56
2022/06/17 06:21:20;;;;;;;9.03;3.60;;;;;;;20.88;50.73;101058.61;1765082;80;25461;-56
2022/06/17 06:23:48;;;;;;;25.48;4.00;;;;;;;20.93;50.88;101052.54;1754200;80;27035;-56
2022/06/17 06:26:21;;;;;;;20.52;4.00;;;;;;;21.02;50.66;101058.19;1764889;80;26003;-56
2022/06/17 06:28:59;;;;;;;20.65;4.15;;;;;;;21.09;50.68;101059.08;1638772;86;26104;-55
2022/06/17 06:31:35;;;;;;;18.70;4.00;;;;;;;21.18;50.19;101052.95;1754574;80;27271;-57
2022/06/17 06:34:04;;;;;;;36.98;4.50;;;;;;;21.26;50.22;101053.30;1774262;80;26132;-58
2022/06/17 06:36:33;;;;;;;14.95;3.30;;;;;;;21.38;50.08;101048.13;1763827;80;27468;-56
2022/06/17 06:39:00;;;;;;;177.32;13.10;;;;;;;21.49;50.20;101045.34;1758161;80;25798;-56
2022/06/17 06:41:28;;;;;;;45.17;6.33;;;;;;;21.57;50.03;101046.55;1726953;81;25897;-56
2022/06/17 06:43:55;;;;;;;20.35;3.52;;;;;;;21.67;48.82;101042.95;1728288;81;26095;-56
2022/06/17 06:46:36;;;;;;;9.00;3.70;;;;;;;21.76;47.77;101035.39;1746917;79;25888;-57
2022/06/17 06:49:04;;;;;;;10.63;3.70;;;;;;;21.86;47.31;101038.59;1755041;79;27502;-56
2022/06/17 06:51:32;;;;;;;23.80;4.05;;;;;;;21.97;46.85;101038.52;1754312;79;25772;-56
2022/06/17 06:54:00;;;;;;;22.27;4.17;;;;;;;22.07;46.80;101034.55;1775184;80;25859;-56
2022/06/17 06:56:28;;;;;;;12.95;3.85;;;;;;;22.18;47.04;101032.58;1776081;80;26105;-56
2022/06/17 06:58:56;;;;;;;11.65;3.83;;;;;;;22.30;46.82;101033.67;1754330;80;25678;-56
2022/06/17 07:01:22;;;;;;;15.98;3.72;;;;;;;22.44;46.44;101029.09;1758249;80;28608;-56
2022/06/17 07:03:49;;;;;;;13.55;4.28;;;;;;;22.56;45.83;101029.82;1777443;80;25479;-56
2022/06/17 07:06:16;;;;;;;15.93;4.10;;;;;;;22.68;44.68;101025.95;1754878;80;25781;-56
2022/06/17 07:08:43;;;;;;;11.28;3.40;;;;;;;22.81;45.15;101025.42;1728156;81;26286;-56
2022/06/17 07:11:10;;;;;;;12.85;3.60;;;;;;;22.94;44.50;101020.45;1724106;81;25851;-56
2022/06/17 07:13:37;;;;;;;12.18;3.80;;;;;;;23.11;43.76;101020.83;1724306;81;29742;-56
2022/06/17 07:16:06;;;;;;;16.48;3.35;;;;;;;23.24;43.63;101019.99;1723540;81;25657;-56
2022/06/17 07:18:36;;;;;;;11.93;3.45;;;;;;;23.38;43.50;101015.86;1747844;80;25783;-56
2022/06/17 07:21:08;;;;;;;9.63;3.15;;;;;;;23.47;43.76;101017.31;1753959;79;26077;-57
2022/06/17 07:23:45;;;;;;;18.40;3.77;;;;;;;23.55;43.05;101016.20;1762216;79;25812;-56
2022/06/17 07:26:17;;;;;;;14.75;3.10;;;;;;;23.61;42.29;101013.98;1762036;80;27486;-56
2022/06/17 07:28:47;;;;;;;12.82;3.12;;;;;;;23.67;42.14;101015.86;1771768;80;25803;-57
2022/06/17 07:31:13;;;;;;;24.92;3.77;;;;;;;23.76;41.68;101023.30;1758841;78;25767;-56
2022/06/17 07:33:41;;;;;;;15.18;3.47;;;;;;;23.86;41.79;101019.56;1759057;78;27328;-58
2022/06/17 07:41:31;;;;;;;10.18;2.83;;;;;;;24.37;42.01;101012.31;1780148;80;25787;-55
2022/06/17 07:43:58;;;;;;;18.00;3.52;;;;;;;24.53;41.84;101005.95;1767615;80;25784;-56
2022/06/17 07:46:25;;;;;;;13.48;3.27;;;;;;;24.68;41.47;101005.14;1775884;80;26736;-56
2022/06/17 07:48:52;;;;;;;9.88;2.60;;;;;;;24.78;40.68;101001.88;1715163;82;25769;-56
2022/06/17 07:51:19;;;;;;;18.00;3.15;;;;;;;24.88;38.41;101004.09;1702346;82;27495;-56
2022/06/17 07:53:46;;;;;;;12.70;3.20;;;;;;;24.91;38.88;101002.28;1706730;82;26140;-56
2022/06/17 07:56:15;;;;;;;10.43;2.70;;;;;;;24.96;38.41;100998.33;1708664;82;26618;-56
2022/06/17 07:58:43;;;;;;;15.05;2.80;;;;;;;25.04;38.59;100999.93;1706269;82;26217;-55
2022/06/17 08:01:14;;;;;;;7.75;2.70;;;;;;;25.13;38.61;100994.98;1709068;82;25469;-56
2022/06/17 08:03:42;;;;;;;10.13;2.47;;;;;;;25.17;37.49;100998.95;1710472;82;28065;-55
2022/06/17 08:06:11;;;;;;;9.08;2.33;;;;;;;25.23;36.83;100993.92;1704005;81;25872;-56
2022/06/17 08:08:39;;;;;;;4.50;2.45;;;;;;;25.31;36.70;101002.39;1710426;81;25815;-56
2022/06/17 08:11:07;;;;;;;8.95;2.87;;;;;;;25.43;36.43;100988.73;1725699;82;26098;-56
2022/06/17 08:13:34;;;;;;;9.33;2.12;;;;;;;25.67;35.70;100995.77;1732601;82;25859;-56
2022/06/17 08:16:07;;;;;;;4.50;1.90;;;;;;;25.85;36.43;100987.98;1696746;83;27476;-57
2022/06/17 08:18:37;;;;;;;7.92;2.10;;;;;;;26.11;35.98;100988.19;1701002;83;27262;-56
2022/06/17 08:21:05;;;;;;;10.35;2.15;;;;;;;26.32;35.13;100990.08;1697053;83;25790;-56
2022/06/17 08:23:32;;;;;;;6.00;2.00;;;;;;;26.40;33.48;100987.02;1697270;83;26362;-56
2022/06/17 08:26:00;;;;;;;7.33;2.12;;;;;;;26.55;33.93;100982.39;1697011;83;26021;-56
2022/06/17 08:28:29;;;;;;;14.25;2.00;;;;;;;26.77;34.28;100982.68;1696887;83;27530;-57
2022/06/17 08:30:57;;;;;;;10.72;3.35;;;;;;;26.92;33.17;100984.14;1702871;83;25959;-57
2022/06/17 08:33:32;;;;;;;11.45;2.47;;;;;;;27.10;33.34;100982.63;1712620;83;25808;-56
2022/06/17 08:36:07;;;;;;;7.22;1.82;;;;;;;27.21;33.04;100975.95;1715918;82;26167;-57
2022/06/17 08:38:39;;;;;;;4.80;2.02;;;;;;;27.33;33.03;100976.75;1713959;82;25835;-56
2022/06/17 08:41:24;;;;;;;6.83;2.02;;;;;;;27.51;33.18;100979.08;1714213;82;28285;-56
2022/06/17 08:44:15;;;;;;;8.95;2.35;;;;;;;27.67;32.22;100975.53;1713748;83;25673;-56
2022/06/17 08:47:02;;;;;;;12.98;2.98;;;;;;;27.64;30.88;100982.95;1702413;82;25824;-56
2022/06/17 08:49:46;;;;;;;8.70;2.40;;;;;;;27.73;31.94;100984.25;1696558;81;26987;-56
2022/06/17 08:52:44;;;;;;;17.50;2.50;;;;;;;27.89;31.69;100980.39;1761246;79;25896;-56
2022/06/17 08:55:50;;;;;;;6.85;2.72;;;;;;;28.04;31.12;100969.61;1762638;80;27683;-56
2022/06/17 08:58:36;;;;;;;12.45;2.30;;;;;;;28.24;30.76;100976.63;1753718;78;25787;-56
2022/06/17 09:01:26;;;;;;;12.80;2.62;;;;;;;28.36;31.21;100966.86;1766572;79;25794;-56
2022/06/17 09:04:14;;;;;;;12.37;2.50;;;;;;;28.55;31.21;100963.32;1733028;81;26119;-55
2022/06/17 09:06:58;;;;;;;11.12;3.35;;;;;;;28.85;31.54;100962.98;1745287;81;25896;-56
2022/06/17 09:09:30;;;;;;;11.73;2.20;;;;;;;29.15;30.42;100966.42;1736765;81;27480;-55
2022/06/17 09:12:14;;;;;;;9.40;2.80;;;;;;;29.32;30.75;100971.92;1677514;80;25503;-56
2022/06/17 09:15:10;;;;;;;6.92;2.42;;;;;;;29.41;29.51;100968.17;1760558;79;25493;-56
2022/06/17 09:17:57;;;;;;;6.65;2.50;;;;;;;29.56;29.38;100957.83;1701705;83;26108;-56
2022/06/17 09:20:32;;;;;;;16.90;2.55;;;;;;;29.72;29.51;100965.77;1746020;80;25894;-56
2022/06/17 09:23:03;;;;;;;15.28;2.50;;;;;;;29.75;28.87;100973.02;1761651;80;27484;-56
2022/06/17 09:25:43;;;;;;;11.00;2.45;;;;;;;29.74;28.45;100972.73;1773076;80;25799;-56
2022/06/17 09:28:15;;;;;;;8.75;2.50;;;;;;;29.83;27.95;100973.08;1777501;80;25704;-56
2022/06/17 09:30:50;;;;;;;13.80;2.30;;;;;;;29.77;28.22;100971.36;1774883;80;26023;-56
2022/06/17 09:33:25;;;;;;;3.00;1.67;;;;;;;29.83;28.91;100970.31;1758673;80;25905;-56
2022/06/17 09:36:18;;;;;;;6.80;2.50;;;;;;;29.90;27.82;100966.77;1754270;80;27513;-56
2022/06/17 09:38:59;;;;;;;10.80;2.58;;;;;;;30.09;28.31;100969.20;1763296;80;33650;-56
2022/06/17 09:41:40;;;;;;;11.28;2.20;;;;;;;30.44;28.28;100968.70;1757934;79;25767;-56
2022/06/17 09:44:18;;;;;;;5.65;2.00;;;;;;;30.94;28.07;100964.91;1754167;80;26122;-56
2022/06/17 09:46:56;;;;;;;11.80;2.20;;;;;;;31.18;26.96;100961.18;1752147;80;25898;-56
2022/06/17 09:49:49;;;;;;;9.48;2.50;;;;;;;31.29;26.75;100964.83;1757793;80;27551;-56
2022/06/17 09:52:21;;;;;;;7.73;1.80;;;;;;;31.17;26.02;100960.89;1764027;80;26008;-57
2022/06/17 09:55:11;;;;;;;6.67;1.70;;;;;;;31.33;25.85;100964.02;1743202;80;25792;-56
2022/06/17 09:58:02;;;;;;;11.48;2.10;;;;;;;31.55;25.80;100956.05;1726849;80;26046;-56
2022/06/17 10:00:36;;;;;;;12.15;2.12;;;;;;;31.37;26.54;100954.58;1756730;80;25876;-56
2022/06/17 10:03:18;;;;;;;7.70;1.80;;;;;;;31.12;26.05;100956.69;1775248;80;27625;-56
2022/06/17 10:05:59;;;;;;;8.10;2.20;;;;;;;31.27;26.11;100954.53;1778419;79;25441;-57
2022/06/17 10:08:51;;;;;;;9.53;1.60;;;;;;;31.64;24.98;100946.06;1766810;80;25723;-57
2022/06/17 10:11:58;;;;;;;5.42;2.05;;;;;;;32.07;24.71;100946.44;1758996;80;28224;-57
2022/06/17 10:14:46;;;;;;;6.28;1.70;;;;;;;32.16;24.70;100940.03;1765460;79;25978;-57
2022/06/17 10:20:33;;;;;;;10.75;2.05;;;;;;;32.36;23.47;100941.75;1757786;80;25443;-56
2022/06/17 10:23:08;;;;;;;11.83;1.67;;;;;;;32.18;24.54;100939.77;1727592;81;25697;-57
2022/06/17 10:26:09;;;;;;;14.78;1.92;;;;;;;32.25;23.95;100940.89;1762395;80;26182;-57
2022/06/17 10:28:57;;;;;;;6.83;2.62;;;;;;;31.91;24.95;100940.87;1752518;80;25981;-56
2022/06/17 10:31:33;;;;;;;11.48;3.05;;;;;;;31.69;26.12;100937.75;1754698;80;27478;-56
2022/06/17 10:34:06;;;;;;;17.75;2.52;;;;;;;32.25;26.07;100938.11;1754102;80;25723;-57
2022/06/17 10:36:33;;;;;;;11.50;2.80;;;;;;;32.82;25.46;100933.90;1771941;80;25728;-56
2022/06/17 10:39:02;;;;;;;11.45;2.80;;;;;;;33.05;25.63;100938.83;1758041;80;26998;-56
2022/06/17 10:41:31;;;;;;;6.10;2.62;;;;;;;33.11;25.54;100930.47;1730579;81;25901;-57
2022/06/17 10:44:00;;;;;;;24.57;2.83;;;;;;;33.57;25.66;100937.80;1760386;80;27455;-56
2022/06/17 10:46:32;;;;;;;11.57;2.47;;;;;;;34.18;24.24;100927.62;1765669;80;26002;-57
2022/06/17 10:49:11;;;;;;;;;;;;;;;34.00;23.13;100936.16;1736235;80;25802;-57
2022/06/17 10:51:40;;;;;;;13.13;2.60;;;;;;;34.05;23.40;100932.48;1732194;80;26173;-57
2022/06/17 10:54:27;;;;;;;14.63;2.62;;;;;;;34.08;23.16;100940.83;1764907;80;25695;-57
2022/06/17 10:57:10;;;;;;;11.20;2.15;;;;;;;34.24;23.31;100940.16;1774606;80;27454;-57
2022/06/17 10:59:44;;;;;;;12.15;2.25;;;;;;;35.00;22.52;100932.73;1780404;80;26131;-57
2022/06/17 11:02:29;;;;;;;13.53;2.75;;;;;;;35.48;22.44;100929.88;1767699;80;25811;-57
2022/06/17 11:05:00;;;;;;;12.80;2.20;;;;;;;36.04;22.12;100931.02;1753532;80;26085;-58
2022/06/17 11:07:41;;;;;;;11.53;2.20;;;;;;;36.84;21.15;100930.19;1754329;80;25704;-57
2022/06/17 11:10:26;;;;;;;6.28;2.30;;;;;;;37.37;20.81;100929.40;1749202;80;27479;-57
2022/06/17 11:13:04;;;;;;;10.35;3.05;;;;;;;37.66;20.15;100921.17;1764276;80;25907;-57
2022/06/17 11:15:47;;;;;;;7.00;2.20;;;;;;;37.14;19.86;100920.08;1778561;79;25800;-57
2022/06/17 11:18:25;;;;;;;8.45;2.15;;;;;;;36.74;20.58;100916.38;1776527;80;26096;-57
2022/06/17 11:20:59;;;;;;;27.95;2.92;;;;;;;36.87;19.88;100914.72;1777605;80;25755;-57
2022/06/17 11:23:38;;;;;;;9.65;1.98;;;;;;;36.76;20.35;100914.07;1778923;80;27541;-57
2022/06/17 11:26:19;;;;;;;32.78;2.67;;;;;;;36.94;20.91;100906.75;1762408;80;25525;-57
2022/06/17 11:28:53;;;;;;;3.55;1.60;;;;;;;37.36;20.07;100915.92;1764932;80;25778;-57
2022/06/17 11:31:27;;;;;;;3.00;1.80;;;;;;;37.52;19.97;100907.21;1750953;80;26249;-57
2022/06/17 11:34:11;;;;;;;7.08;1.55;;;;;;;37.87;19.73;100901.91;1774233;80;25723;-57
2022/06/17 11:36:56;;;;;;;12.35;2.02;;;;;;;37.88;19.73;100902.14;1778322;80;27449;-57
2022/06/17 11:39:34;;;;;;;4.80;2.10;;;;;;;38.40;18.77;100917.72;1728183;81;26476;-57
2022/06/17 11:42:15;;;;;;;9.70;2.08;;;;;;;38.29;19.28;100925.54;1762306;80;25872;-57
2022/06/17 11:45:01;;;;;;;8.25;1.80;;;;;;;38.38;18.90;100934.06;1781613;80;26106;-57
2022/06/17 11:47:32;;;;;;;6.08;1.47;;;;;;;39.06;18.67;100933.88;1770928;80;26831;-57
2022/06/17 11:50:14;;;;;;;13.75;2.17;;;;;;;38.75;17.14;100938.37;1776279;80;56162;-57
2022/06/17 11:52:42;;;;;;;10.25;2.00;;;;;;;39.11;18.04;100942.17;1780552;80;25747;-57
2022/06/17 11:55:09;;;;;;;9.93;2.10;;;;;;;38.72;18.19;100936.79;1775645;80;25739;-56
2022/06/17 11:57:40;;;;;;;5.47;2.08;;;;;;;38.34;18.78;100954.36;1753979;80;26104;-58
2022/06/17 12:00:27;;;;;;;31.42;2.87;;;;;;;37.01;19.85;100948.39;1756371;80;25822;-57
2022/06/17 12:02:59;;;;;;;9.48;2.77;;;;;;;35.56;21.54;100943.77;1766168;80;28553;-57
2022/06/17 12:05:30;;;;;;;9.53;2.98;;;;;;;34.78;22.72;100957.80;1760898;80;33048;-57
2022/06/17 12:08:24;;;;;;;9.40;2.20;;;;;;;34.23;23.18;100969.19;1763850;80;25723;-57
2022/06/17 12:10:58;;;;;;;10.55;2.30;;;;;;;33.47;23.36;100979.13;1748057;80;29837;-57